createdAt,value
2023-02-16T00:01:53.341Z,-9.09
2023-02-16T00:03:57.395Z,-9.13
2023-02-16T00:06:20.583Z,-9.15
2023-02-16T00:08:35.132Z,-9.20
2023-02-16T00:10:39.346Z,-9.25
2023-02-16T00:13:01.025Z,-9.27
2023-02-16T00:15:17.796Z,-9.32
2023-02-16T00:17:20.526Z,-9.36
2023-02-16T00:19:25.901Z,-9.42
2023-02-16T00:21:28.574Z,-9.47
2023-02-16T00:23:31.243Z,-9.56
2023-02-16T00:25:33.892Z,-9.64
2023-02-16T00:27:37.572Z,-9.68
2023-02-16T00:29:40.215Z,-9.73
2023-02-16T00:31:43.051Z,-9.79
2023-02-16T00:33:46.581Z,-9.83
2023-02-16T00:35:49.345Z,-9.83
2023-02-16T00:37:52.509Z,-9.86
2023-02-16T00:39:55.094Z,-9.91
2023-02-16T00:42:06.379Z,-9.92
2023-02-16T00:44:17.752Z,-9.90
2023-02-16T00:46:20.776Z,-9.93
2023-02-16T00:48:25.040Z,-9.87
2023-02-16T00:50:31.707Z,-9.86
2023-02-16T00:52:40.139Z,-9.81
2023-02-16T00:54:42.766Z,-9.79
2023-02-16T00:56:46.805Z,-9.82
2023-02-16T00:58:52.920Z,-9.80
2023-02-16T01:01:17.913Z,-9.80
2023-02-16T01:03:24.568Z,-9.74
2023-02-16T01:05:27.750Z,-9.75
2023-02-16T01:07:48.853Z,-9.74
2023-02-16T01:10:09.969Z,-9.71
2023-02-16T01:12:18.974Z,-9.75
2023-02-16T01:14:21.829Z,-9.72
2023-02-16T01:16:27.800Z,-9.71
2023-02-16T01:18:30.470Z,-9.69
2023-02-16T01:20:35.487Z,-9.68
2023-02-16T01:22:38.204Z,-9.70
2023-02-16T01:24:40.811Z,-9.69
2023-02-16T01:26:49.262Z,-9.71
2023-02-16T01:28:52.028Z,-9.71
2023-02-16T01:30:55.094Z,-9.69
2023-02-16T01:32:57.918Z,-9.66
2023-02-16T01:35:00.666Z,-9.71
2023-02-16T01:37:03.279Z,-9.70
2023-02-16T01:39:06.724Z,-9.71
2023-02-16T01:41:37.877Z,-9.71
2023-02-16T01:43:48.467Z,-9.71
2023-02-16T01:46:15.119Z,-9.71
2023-02-16T01:48:27.801Z,-9.71
2023-02-16T01:50:43.528Z,-9.70
2023-02-16T01:53:14.493Z,-9.71
2023-02-16T01:55:24.718Z,-9.72
2023-02-16T01:57:39.680Z,-9.71
2023-02-16T01:59:45.292Z,-9.71
2023-02-16T02:01:58.486Z,-9.71
2023-02-16T02:04:20.316Z,-9.70
2023-02-16T02:06:31.520Z,-9.74
2023-02-16T02:08:44.133Z,-9.74
2023-02-16T02:11:08.469Z,-9.75
2023-02-16T02:13:38.072Z,-9.77
2023-02-16T02:16:04.209Z,-9.75
2023-02-16T02:18:06.863Z,-9.75
2023-02-16T02:20:17.140Z,-9.72
2023-02-16T02:22:44.010Z,-9.70
2023-02-16T02:25:24.031Z,-9.66
2023-02-16T02:27:28.334Z,-9.64
2023-02-16T02:30:02.711Z,-9.65
2023-02-16T02:32:50.744Z,-9.66
2023-02-16T02:35:19.322Z,-9.65
2023-02-16T02:37:35.406Z,-9.66
2023-02-16T02:39:55.524Z,-9.64
2023-02-16T02:42:05.911Z,-9.65
2023-02-16T02:44:10.077Z,-9.64
2023-02-16T02:46:27.098Z,-9.64
2023-02-16T02:48:33.799Z,-9.62
2023-02-16T02:51:07.042Z,-9.61
2023-02-16T02:53:14.407Z,-9.64
2023-02-16T02:55:40.827Z,-9.66
2023-02-16T02:58:08.278Z,-9.64
2023-02-16T03:00:41.751Z,-9.70
2023-02-16T03:02:48.584Z,-9.74
2023-02-16T03:04:54.239Z,-9.72
2023-02-16T03:06:59.190Z,-9.72
2023-02-16T03:09:07.338Z,-9.70
2023-02-16T03:11:31.119Z,-9.68
2023-02-16T03:13:39.701Z,-9.69
2023-02-16T03:15:45.873Z,-9.69
2023-02-16T03:18:07.379Z,-9.68
2023-02-16T03:20:33.957Z,-9.69
2023-02-16T03:22:56.793Z,-9.69
2023-02-16T03:25:18.017Z,-9.72
2023-02-16T03:27:47.772Z,-9.73
2023-02-16T03:29:52.193Z,-9.75
2023-02-16T03:31:56.339Z,-9.79
2023-02-16T03:33:59.283Z,-9.77
2023-02-16T03:36:02.954Z,-9.77
2023-02-16T03:38:06.462Z,-9.86
2023-02-16T03:40:31.174Z,-9.84
2023-02-16T03:42:33.852Z,-9.90
2023-02-16T03:44:36.531Z,-9.96
2023-02-16T03:46:39.331Z,-9.97
2023-02-16T03:48:41.988Z,-10.03
2023-02-16T03:50:44.704Z,-10.00
2023-02-16T03:52:47.515Z,-10.04
2023-02-16T03:54:50.239Z,-10.04
2023-02-16T03:56:52.888Z,-10.08
2023-02-16T03:58:55.560Z,-9.98
2023-02-16T04:00:59.206Z,-9.90
2023-02-16T04:03:03.261Z,-9.82
2023-02-16T04:05:06.260Z,-9.79
2023-02-16T04:07:08.930Z,-9.72
2023-02-16T04:09:11.643Z,-9.68
2023-02-16T04:11:33.011Z,-9.64
2023-02-16T04:13:35.586Z,-9.63
2023-02-16T04:15:38.312Z,-9.55
2023-02-16T04:17:41.732Z,-9.54
2023-02-16T04:19:44.302Z,-9.48
2023-02-16T04:21:46.959Z,-9.43
2023-02-16T04:23:49.549Z,-9.37
2023-02-16T04:25:52.195Z,-9.36
2023-02-16T04:27:55.593Z,-9.35
2023-02-16T04:29:58.357Z,-9.30
2023-02-16T04:32:01.258Z,-9.28
2023-02-16T04:34:04.264Z,-9.24
2023-02-16T04:36:07.851Z,-9.22
2023-02-16T04:38:10.661Z,-9.19
2023-02-16T04:40:15.448Z,-9.17
2023-02-16T04:42:18.035Z,-9.15
2023-02-16T04:44:20.766Z,-9.10
2023-02-16T04:46:24.184Z,-9.06
2023-02-16T04:48:26.989Z,-9.03
2023-02-16T04:50:29.914Z,-8.96
2023-02-16T04:52:32.692Z,-8.94
2023-02-16T04:54:35.424Z,-8.85
2023-02-16T04:56:38.127Z,-8.78
2023-02-16T04:58:41.177Z,-8.74
2023-02-16T05:00:43.872Z,-8.66
2023-02-16T05:02:46.561Z,-8.61
2023-02-16T05:04:49.295Z,-8.58
2023-02-16T05:06:52.104Z,-8.52
2023-02-16T05:08:54.754Z,-8.47
2023-02-16T05:11:16.187Z,-8.42
2023-02-16T05:13:37.215Z,-8.40
2023-02-16T05:15:40.355Z,-8.36
2023-02-16T05:17:43.065Z,-8.33
2023-02-16T05:19:48.541Z,-8.24
2023-02-16T05:21:51.210Z,-8.18
2023-02-16T05:23:53.817Z,-8.14
2023-02-16T05:25:56.513Z,-8.12
2023-02-16T05:27:59.424Z,-8.11
2023-02-16T05:30:04.571Z,-8.14
2023-02-16T05:32:07.702Z,-8.06
2023-02-16T05:34:10.677Z,-7.99
2023-02-16T05:36:13.354Z,-7.96
2023-02-16T05:38:15.982Z,-7.93
2023-02-16T05:40:18.692Z,-7.89
2023-02-16T05:42:21.340Z,-7.83
2023-02-16T05:44:24.064Z,-7.76
2023-02-16T05:46:28.141Z,-7.73
2023-02-16T05:48:30.740Z,-7.67
2023-02-16T05:50:33.364Z,-7.61
2023-02-16T05:52:35.998Z,-7.52
2023-02-16T05:54:38.710Z,-7.48
2023-02-16T05:56:41.450Z,-7.41
2023-02-16T05:58:44.191Z,-7.34
2023-02-16T06:00:47.306Z,-7.35
2023-02-16T06:02:50.091Z,-7.31
2023-02-16T06:04:52.716Z,-7.28
2023-02-16T06:06:58.051Z,-7.23
2023-02-16T06:09:02.001Z,-7.25
2023-02-16T06:11:28.655Z,-7.16
2023-02-16T06:13:31.408Z,-7.08
2023-02-16T06:15:34.014Z,-7.02
2023-02-16T06:17:37.039Z,-6.94
2023-02-16T06:19:39.678Z,-6.87
2023-02-16T06:21:42.492Z,-6.78
2023-02-16T06:23:45.117Z,-6.69
2023-02-16T06:25:51.498Z,-6.64
2023-02-16T06:27:55.947Z,-6.61
2023-02-16T06:29:58.730Z,-6.60
2023-02-16T06:32:01.544Z,-6.61
2023-02-16T06:34:05.169Z,-6.61
2023-02-16T06:36:08.360Z,-6.59
2023-02-16T06:38:10.975Z,-6.53
2023-02-16T06:40:14.605Z,-6.46
2023-02-16T06:42:17.434Z,-6.38
2023-02-16T06:44:20.261Z,-6.24
2023-02-16T06:46:23.021Z,-6.10
2023-02-16T06:48:25.745Z,-5.93
2023-02-16T06:50:28.385Z,-5.79
2023-02-16T06:52:31.102Z,-5.66
2023-02-16T06:54:33.755Z,-5.64
2023-02-16T06:56:38.027Z,-5.66
2023-02-16T07:00:43.836Z,-5.70
2023-02-16T07:02:47.010Z,-5.76
2023-02-16T07:04:49.645Z,-5.80
2023-02-16T07:06:52.836Z,-5.85
2023-02-16T07:08:56.264Z,-5.91
2023-02-16T07:10:58.860Z,-6.00
2023-02-16T07:13:01.585Z,-5.99
2023-02-16T07:15:05.673Z,-6.00
2023-02-16T07:17:08.612Z,-5.98
2023-02-16T07:19:11.643Z,-5.94
2023-02-16T07:21:14.940Z,-5.89
2023-02-16T07:23:18.053Z,-5.79
2023-02-16T07:25:20.608Z,-5.73
2023-02-16T07:27:24.168Z,-5.68
2023-02-16T07:29:26.913Z,-5.58
2023-02-16T07:31:30.611Z,-5.48
2023-02-16T07:33:34.565Z,-5.43
2023-02-16T07:35:37.983Z,-5.41
2023-02-16T07:37:40.676Z,-5.37
2023-02-16T07:39:43.317Z,-5.26
2023-02-16T07:41:46.034Z,-5.20
2023-02-16T07:43:48.669Z,-5.08
2023-02-16T07:45:52.034Z,-4.94
2023-02-16T07:47:54.652Z,-4.87
2023-02-16T07:49:57.247Z,-4.82
2023-02-16T07:51:59.875Z,-4.78
2023-02-16T07:54:02.510Z,-4.71
2023-02-16T07:56:05.398Z,-4.68
2023-02-16T07:58:08.984Z,-4.63
2023-02-16T08:00:12.114Z,-4.65
2023-02-16T08:02:16.534Z,-4.59
2023-02-16T08:04:19.274Z,-4.55
2023-02-16T08:06:22.466Z,-4.49
2023-02-16T08:08:25.098Z,-4.44
2023-02-16T08:10:27.702Z,-4.39
2023-02-16T08:12:30.308Z,-4.36
2023-02-16T08:14:32.998Z,-4.34
2023-02-16T08:16:35.993Z,-4.31
2023-02-16T08:18:39.698Z,-4.23
2023-02-16T08:21:01.413Z,-4.14
2023-02-16T08:23:08.095Z,-4.00
2023-02-16T08:25:11.863Z,-3.93
2023-02-16T08:27:15.475Z,-3.85
2023-02-16T08:29:18.375Z,-3.75
2023-02-16T08:31:23.889Z,-3.65
2023-02-16T08:33:26.634Z,-3.64
2023-02-16T08:35:32.538Z,-3.48
2023-02-16T08:37:37.552Z,-3.27
2023-02-16T08:39:40.922Z,-2.99
2023-02-16T08:41:44.969Z,-2.76
2023-02-16T08:43:49.132Z,-2.52
2023-02-16T08:45:52.023Z,-2.47
2023-02-16T08:47:54.681Z,-2.37
2023-02-16T08:49:57.346Z,-2.32
2023-02-16T08:52:01.856Z,-2.36
2023-02-16T08:54:08.318Z,-2.40
2023-02-16T08:56:11.344Z,-2.46
2023-02-16T08:58:15.956Z,-2.51
2023-02-16T09:00:34.208Z,-2.61
2023-02-16T09:02:38.291Z,-2.66
2023-02-16T09:04:41.292Z,-2.72
2023-02-16T09:06:45.908Z,-2.63
2023-02-16T09:08:57.079Z,-2.67
2023-02-16T09:11:06.883Z,-2.73
2023-02-16T09:13:16.358Z,-2.71
2023-02-16T09:15:19.107Z,-2.69
2023-02-16T09:17:21.817Z,-2.66
2023-02-16T09:19:24.823Z,-2.67
2023-02-16T09:21:32.458Z,-2.71
2023-02-16T09:23:35.884Z,-2.55
2023-02-16T09:25:40.353Z,-2.44
2023-02-16T09:27:43.649Z,-2.38
2023-02-16T09:29:46.237Z,-2.40
2023-02-16T09:31:48.963Z,-2.35
2023-02-16T09:33:53.911Z,-2.32
2023-02-16T09:35:56.652Z,-2.43
2023-02-16T09:37:59.237Z,-2.43
2023-02-16T09:40:02.270Z,-2.49
2023-02-16T09:42:19.730Z,-2.49
2023-02-16T09:44:22.321Z,-2.50
2023-02-16T09:46:26.928Z,-2.61
2023-02-16T09:48:36.400Z,-2.62
2023-02-16T09:50:53.356Z,-2.66
2023-02-16T09:53:06.927Z,-2.67
2023-02-16T09:55:15.492Z,-2.80
2023-02-16T09:57:37.985Z,-2.89
2023-02-16T09:59:43.744Z,-2.99
2023-02-16T10:02:06.089Z,-2.98
2023-02-16T10:04:30.288Z,-2.99
2023-02-16T10:06:56.442Z,-2.97
2023-02-16T10:09:16.686Z,-2.94
2023-02-16T10:11:38.640Z,-2.89
2023-02-16T10:13:49.857Z,-2.84
2023-02-16T10:15:55.778Z,-2.82
2023-02-16T10:18:08.728Z,-2.82
2023-02-16T10:20:17.225Z,-2.74
2023-02-16T10:22:36.265Z,-2.63
2023-02-16T10:25:09.006Z,-2.39
2023-02-16T10:27:16.525Z,-2.18
2023-02-16T10:29:22.347Z,-1.95
2023-02-16T10:31:40.614Z,-1.82
2023-02-16T10:33:46.861Z,-1.69
2023-02-16T10:35:56.397Z,-1.69
2023-02-16T10:37:59.473Z,-1.71
2023-02-16T10:40:44.315Z,-1.75
2023-02-16T10:42:54.268Z,-1.85
2023-02-16T10:45:51.916Z,-1.89
2023-02-16T10:47:54.992Z,-1.93
2023-02-16T10:49:58.209Z,-2.01
2023-02-16T10:52:03.985Z,-2.15
2023-02-16T10:54:31.532Z,-2.26
2023-02-16T10:56:52.664Z,-2.34
2023-02-16T10:58:57.681Z,-2.40
2023-02-16T11:01:27.174Z,-2.45
2023-02-16T11:03:33.863Z,-2.53
2023-02-16T11:05:41.764Z,-2.55
2023-02-16T11:08:04.700Z,-2.56
2023-02-16T11:10:21.134Z,-2.53
2023-02-16T11:12:29.322Z,-2.54
2023-02-16T11:14:32.089Z,-2.54
2023-02-16T11:16:35.353Z,-2.53
2023-02-16T11:18:42.271Z,-2.53
2023-02-16T11:20:46.057Z,-2.51
2023-02-16T11:22:50.154Z,-2.59
2023-02-16T11:24:53.504Z,-2.47
2023-02-16T11:27:07.047Z,-2.53
2023-02-16T11:29:23.098Z,-2.61
2023-02-16T11:31:30.839Z,-2.66
2023-02-16T11:33:35.074Z,-2.68
2023-02-16T11:35:42.983Z,-2.70
2023-02-16T11:37:46.570Z,-2.64
2023-02-16T11:39:53.538Z,-2.64
2023-02-16T11:42:04.256Z,-2.63
2023-02-16T11:44:27.843Z,-2.67
2023-02-16T11:46:40.145Z,-2.71
2023-02-16T11:48:43.803Z,-2.71
2023-02-16T11:51:11.362Z,-2.72
2023-02-16T11:53:27.645Z,-2.74
2023-02-16T11:55:41.996Z,-2.69
2023-02-16T11:57:45.239Z,-2.69
2023-02-16T11:59:47.943Z,-2.68
2023-02-16T12:02:17.416Z,-2.70
2023-02-16T12:04:34.973Z,-2.67
2023-02-16T12:07:05.214Z,-2.71
2023-02-16T12:09:10.680Z,-2.77
2023-02-16T12:11:28.988Z,-2.79
2023-02-16T12:13:31.583Z,-2.81
2023-02-16T12:16:24.212Z,-2.91
2023-02-16T12:18:34.604Z,-3.02
2023-02-16T12:20:59.363Z,-3.03
2023-02-16T12:23:29.201Z,-3.05
2023-02-16T12:25:42.629Z,-3.07
2023-02-16T12:27:51.283Z,-3.12
2023-02-16T12:30:12.382Z,-3.17
2023-02-16T12:32:42.688Z,-3.24
2023-02-16T12:35:13.772Z,-3.32
2023-02-16T12:37:33.931Z,-3.33
2023-02-16T12:39:37.146Z,-3.37
2023-02-16T12:41:46.050Z,-3.40
2023-02-16T12:43:54.854Z,-3.43
2023-02-16T12:46:05.905Z,-3.47
2023-02-16T12:48:29.913Z,-3.48
2023-02-16T12:50:35.417Z,-3.52
2023-02-16T12:52:46.938Z,-3.53
2023-02-16T12:54:55.593Z,-3.52
2023-02-16T12:57:04.869Z,-3.55
2023-02-16T12:59:18.269Z,-3.56
2023-02-16T13:01:25.649Z,-3.61
2023-02-16T13:03:40.734Z,-3.63
2023-02-16T13:05:50.173Z,-3.64
2023-02-16T13:08:02.975Z,-3.68
2023-02-16T13:10:20.636Z,-3.71
2023-02-16T13:12:47.533Z,-3.76
2023-02-16T13:15:00.878Z,-3.79
2023-02-16T13:17:12.467Z,-3.79
2023-02-16T13:19:16.810Z,-3.80
2023-02-16T13:21:53.473Z,-3.84
2023-02-16T13:24:32.239Z,-3.88
2023-02-16T13:26:48.796Z,-3.90
2023-02-16T13:29:39.646Z,-3.91
2023-02-16T13:32:06.508Z,-3.98
2023-02-16T13:34:18.927Z,-3.98
2023-02-16T13:36:42.470Z,-4.01
2023-02-16T13:39:29.955Z,-4.09
2023-02-16T13:41:44.762Z,-4.11
2023-02-16T13:44:02.094Z,-4.22
2023-02-16T13:46:12.475Z,-4.17
2023-02-16T13:48:22.975Z,-4.19
2023-02-16T13:50:30.248Z,-4.20
2023-02-16T13:52:43.518Z,-4.21
2023-02-16T13:54:50.213Z,-4.22
2023-02-16T13:56:52.895Z,-4.23
2023-02-16T13:59:01.064Z,-4.25
2023-02-16T14:01:28.594Z,-4.25
2023-02-16T14:03:38.338Z,-4.29
2023-02-16T14:05:46.303Z,-4.28
2023-02-16T14:08:11.258Z,-4.28
2023-02-16T14:10:14.962Z,-4.31
2023-02-16T14:12:36.338Z,-4.36
2023-02-16T14:14:56.097Z,-4.39
2023-02-16T14:17:35.428Z,-4.45
2023-02-16T14:19:38.112Z,-4.41
2023-02-16T14:21:50.492Z,-4.46
2023-02-16T14:23:58.661Z,-4.44
2023-02-16T14:26:07.206Z,-4.46
2023-02-16T14:28:51.007Z,-4.46
2023-02-16T14:30:57.033Z,-4.45
2023-02-16T14:33:12.793Z,-4.46
2023-02-16T14:35:30.173Z,-4.47
2023-02-16T14:37:42.427Z,-4.44
2023-02-16T14:40:06.892Z,-4.46
2023-02-16T14:42:34.332Z,-4.42
2023-02-16T14:45:07.680Z,-4.48
2023-02-16T14:47:35.072Z,-4.47
2023-02-16T14:49:49.640Z,-4.46
2023-02-16T14:52:40.788Z,-4.46
2023-02-16T14:55:28.485Z,-4.44
2023-02-16T14:57:53.679Z,-4.46
2023-02-16T15:00:01.383Z,-4.53
2023-02-16T15:02:27.924Z,-4.56
2023-02-16T15:04:33.008Z,-4.60
2023-02-16T15:06:47.895Z,-4.61
2023-02-16T15:08:58.428Z,-4.61
2023-02-16T15:11:13.039Z,-4.59
2023-02-16T15:13:29.781Z,-4.56
2023-02-16T15:15:48.889Z,-4.58
2023-02-16T15:17:53.140Z,-4.56
2023-02-16T15:20:04.705Z,-4.56
2023-02-16T15:22:11.475Z,-4.49
2023-02-16T15:24:24.054Z,-4.48
2023-02-16T15:26:30.986Z,-4.48
2023-02-16T15:28:41.008Z,-4.41
2023-02-16T15:30:48.640Z,-4.42
2023-02-16T15:32:56.858Z,-4.46
2023-02-16T15:34:59.919Z,-4.46
2023-02-16T15:37:29.040Z,-4.42
2023-02-16T15:39:48.285Z,-4.44
2023-02-16T15:42:19.867Z,-4.46
2023-02-16T15:44:34.522Z,-4.48
2023-02-16T15:46:43.864Z,-4.49
2023-02-16T15:48:46.917Z,-4.50
2023-02-16T15:50:53.750Z,-4.59
2023-02-16T15:52:56.424Z,-4.58
2023-02-16T15:55:02.177Z,-4.62
2023-02-16T15:57:21.420Z,-4.67
2023-02-16T15:59:38.834Z,-4.76
2023-02-16T16:01:41.992Z,-4.82
2023-02-16T16:03:46.702Z,-4.85
2023-02-16T16:06:06.554Z,-4.87
2023-02-16T16:08:26.660Z,-4.90
2023-02-16T16:10:36.611Z,-4.90
2023-02-16T16:12:39.852Z,-4.94
2023-02-16T16:14:53.259Z,-4.96
2023-02-16T16:16:57.150Z,-5.02
2023-02-16T16:19:09.087Z,-5.04
2023-02-16T16:21:15.694Z,-5.03
2023-02-16T16:23:19.124Z,-5.11
2023-02-16T16:25:29.779Z,-5.12
2023-02-16T16:27:37.372Z,-5.19
2023-02-16T16:29:47.727Z,-5.20
2023-02-16T16:31:53.728Z,-5.23
2023-02-16T16:34:00.667Z,-5.26
2023-02-16T16:36:12.285Z,-5.30
2023-02-16T16:38:29.749Z,-5.33
2023-02-16T16:40:39.934Z,-5.36
2023-02-16T16:43:02.426Z,-5.42
2023-02-16T16:45:23.263Z,-5.44
2023-02-16T16:47:35.065Z,-5.46
2023-02-16T16:49:37.844Z,-5.52
2023-02-16T16:51:42.101Z,-5.61
2023-02-16T16:53:51.198Z,-5.59
2023-02-16T16:55:53.917Z,-5.63
2023-02-16T16:58:01.585Z,-5.70
2023-02-16T17:00:05.720Z,-5.68
2023-02-16T17:02:13.716Z,-5.70
2023-02-16T17:04:17.173Z,-5.74
2023-02-16T17:06:32.131Z,-5.77
2023-02-16T17:08:44.658Z,-5.82
2023-02-16T17:10:48.610Z,-5.85
2023-02-16T17:12:55.865Z,-5.89
2023-02-16T17:14:58.854Z,-5.95
2023-02-16T17:17:01.930Z,-6.04
2023-02-16T17:19:04.776Z,-6.03
2023-02-16T17:21:07.810Z,-5.99
2023-02-16T17:23:15.386Z,-6.03
2023-02-16T17:25:18.245Z,-6.06
2023-02-16T17:27:21.324Z,-6.13
2023-02-16T17:29:23.995Z,-6.07
2023-02-16T17:31:26.797Z,-6.11
2023-02-16T17:33:29.503Z,-6.11
2023-02-16T17:35:32.530Z,-6.12
2023-02-16T17:37:35.780Z,-6.11
2023-02-16T17:39:38.415Z,-6.11
2023-02-16T17:41:41.109Z,-6.10
2023-02-16T17:43:43.780Z,-6.11
2023-02-16T17:45:47.193Z,-6.14
2023-02-16T17:47:52.306Z,-6.16
2023-02-16T17:49:55.435Z,-6.15
2023-02-16T17:51:58.053Z,-6.15
2023-02-16T17:54:00.775Z,-6.18
2023-02-16T17:56:03.832Z,-6.22
2023-02-16T17:58:06.702Z,-6.22
2023-02-16T18:00:16.192Z,-6.26
2023-02-16T18:02:18.824Z,-6.25
2023-02-16T18:04:24.395Z,-6.28
2023-02-16T18:06:28.951Z,-6.32
2023-02-16T18:08:47.905Z,-6.36
2023-02-16T18:10:54.752Z,-6.39
2023-02-16T18:12:57.789Z,-6.41
2023-02-16T18:15:00.792Z,-6.40
2023-02-16T18:17:04.866Z,-6.40
2023-02-16T18:19:09.993Z,-6.44
2023-02-16T18:21:12.631Z,-6.40
2023-02-16T18:23:16.744Z,-6.41
2023-02-16T18:25:20.424Z,-6.41
2023-02-16T18:27:23.300Z,-6.40
2023-02-16T18:29:25.909Z,-6.42
2023-02-16T18:31:28.733Z,-6.43
2023-02-16T18:33:32.151Z,-6.42
2023-02-16T18:35:34.797Z,-6.45
2023-02-16T18:37:37.584Z,-6.44
2023-02-16T18:39:41.113Z,-6.43
2023-02-16T18:41:43.724Z,-6.42
2023-02-16T18:43:46.385Z,-6.39
2023-02-16T18:45:49.346Z,-6.35
2023-02-16T18:47:52.381Z,-6.31
2023-02-16T18:49:57.089Z,-6.29
2023-02-16T18:51:59.658Z,-6.27
2023-02-16T18:54:02.327Z,-6.25
2023-02-16T18:56:09.192Z,-6.22
2023-02-16T18:58:14.371Z,-6.18
2023-02-16T19:00:17.647Z,-6.16
2023-02-16T19:02:20.286Z,-6.14
2023-02-16T19:04:23.508Z,-6.11
2023-02-16T19:06:26.503Z,-6.11
2023-02-16T19:08:29.192Z,-6.07
2023-02-16T19:10:32.506Z,-6.08
2023-02-16T19:12:35.209Z,-6.06
2023-02-16T19:14:38.008Z,-6.06
2023-02-16T19:16:41.260Z,-6.10
2023-02-16T19:18:44.027Z,-6.05
2023-02-16T19:20:47.960Z,-6.01
2023-02-16T19:22:50.804Z,-5.98
2023-02-16T19:24:53.548Z,-5.96
2023-02-16T19:26:56.132Z,-5.90
2023-02-16T19:28:59.157Z,-5.87
2023-02-16T19:31:04.696Z,-5.85
2023-02-16T19:33:07.423Z,-5.82
2023-02-16T19:35:11.116Z,-5.81
2023-02-16T19:37:13.826Z,-5.80
2023-02-16T19:39:16.557Z,-5.77
2023-02-16T19:41:28.057Z,-5.80
2023-02-16T19:43:30.689Z,-5.76
2023-02-16T19:45:37.491Z,-5.75
2023-02-16T19:47:40.192Z,-5.73
2023-02-16T19:49:43.079Z,-5.73
2023-02-16T19:51:47.806Z,-5.73
2023-02-16T19:53:51.710Z,-5.74
2023-02-16T19:55:54.942Z,-5.74
2023-02-16T19:57:57.555Z,-5.76
2023-02-16T20:00:00.129Z,-5.75
2023-02-16T20:02:03.569Z,-5.76
2023-02-16T20:04:06.189Z,-5.75
2023-02-16T20:06:19.932Z,-5.75
2023-02-16T20:08:22.625Z,-5.77
2023-02-16T20:10:25.260Z,-5.79
2023-02-16T20:12:28.891Z,-5.80
2023-02-16T20:14:31.539Z,-5.83
2023-02-16T20:16:35.292Z,-5.85
2023-02-16T20:18:38.949Z,-5.86
2023-02-16T20:20:41.663Z,-5.89
2023-02-16T20:22:44.964Z,-5.92
2023-02-16T20:24:47.604Z,-5.92
2023-02-16T20:26:52.200Z,-5.91
2023-02-16T20:28:55.984Z,-5.91
2023-02-16T20:30:58.752Z,-5.91
2023-02-16T20:33:01.446Z,-5.94
2023-02-16T20:35:07.424Z,-5.90
2023-02-16T20:37:10.111Z,-5.88
2023-02-16T20:39:12.720Z,-5.87
2023-02-16T20:41:15.453Z,-5.89
2023-02-16T20:43:21.081Z,-5.91
2023-02-16T20:45:23.731Z,-5.91
2023-02-16T20:47:26.460Z,-5.94
2023-02-16T20:49:29.636Z,-5.94
2023-02-16T20:51:32.663Z,-6.00
2023-02-16T20:53:35.714Z,-6.02
2023-02-16T20:55:38.282Z,-6.02
2023-02-16T20:57:40.965Z,-6.03
2023-02-16T20:59:43.622Z,-6.02
2023-02-16T21:01:52.124Z,-6.00
2023-02-16T21:04:00.694Z,-5.98
2023-02-16T21:06:04.023Z,-5.93
2023-02-16T21:08:06.993Z,-5.89
2023-02-16T21:10:11.850Z,-5.85
2023-02-16T21:12:14.503Z,-5.83
2023-02-16T21:14:17.222Z,-5.80
2023-02-16T21:16:19.926Z,-5.80
2023-02-16T21:18:22.773Z,-5.78
2023-02-16T21:20:25.408Z,-5.74
2023-02-16T21:22:28.175Z,-5.71
2023-02-16T21:24:30.868Z,-5.71
2023-02-16T21:26:33.536Z,-5.68
2023-02-16T21:28:36.537Z,-5.66
2023-02-16T21:30:39.164Z,-5.65
2023-02-16T21:32:41.885Z,-5.64
2023-02-16T21:34:44.679Z,-5.63
2023-02-16T21:36:47.581Z,-5.58
2023-02-16T21:38:50.515Z,-5.55
2023-02-16T21:41:11.556Z,-5.52
2023-02-16T21:43:14.286Z,-5.52
2023-02-16T21:45:17.600Z,-5.50
2023-02-16T21:47:38.969Z,-5.47
2023-02-16T21:49:41.674Z,-5.44
2023-02-16T21:51:46.504Z,-5.43
2023-02-16T21:53:49.189Z,-5.39
2023-02-16T21:56:10.444Z,-5.40
2023-02-16T21:58:13.130Z,-5.33
2023-02-16T22:00:16.263Z,-5.32
2023-02-16T22:02:18.880Z,-5.28
2023-02-16T22:04:22.659Z,-5.26
2023-02-16T22:06:38.110Z,-5.25
2023-02-16T22:08:40.725Z,-5.23
2023-02-16T22:10:43.469Z,-5.22
2023-02-16T22:12:46.157Z,-5.23
2023-02-16T22:14:48.931Z,-5.21
2023-02-16T22:16:51.626Z,-5.20
2023-02-16T22:19:04.060Z,-5.23
2023-02-16T22:21:08.633Z,-5.18
2023-02-16T22:23:12.466Z,-5.20
2023-02-16T22:25:15.145Z,-5.17
2023-02-16T22:27:17.784Z,-5.15
2023-02-16T22:29:20.415Z,-5.18
2023-02-16T22:31:27.642Z,-5.21
2023-02-16T22:33:30.508Z,-5.20
2023-02-16T22:35:33.681Z,-5.21
2023-02-16T22:37:36.324Z,-5.23
2023-02-16T22:39:39.053Z,-5.24
2023-02-16T22:41:41.897Z,-5.26
2023-02-16T22:43:44.444Z,-5.26
2023-02-16T22:45:47.084Z,-5.28
2023-02-16T22:47:49.761Z,-5.29
2023-02-16T22:49:52.520Z,-5.32
2023-02-16T22:51:55.167Z,-5.34
2023-02-16T22:53:59.643Z,-5.36
2023-02-16T22:56:05.911Z,-5.39
2023-02-16T22:58:08.670Z,-5.41
2023-02-16T23:00:16.022Z,-5.44
2023-02-16T23:02:18.685Z,-5.47
2023-02-16T23:04:21.383Z,-5.47
2023-02-16T23:06:29.887Z,-5.49
2023-02-16T23:08:32.551Z,-5.48
2023-02-16T23:10:38.083Z,-5.49
2023-02-16T23:12:40.674Z,-5.50
2023-02-16T23:14:43.313Z,-5.50
2023-02-16T23:16:51.894Z,-5.50
2023-02-16T23:18:59.457Z,-5.50
2023-02-16T23:21:14.632Z,-5.53
2023-02-16T23:23:17.504Z,-5.55
2023-02-16T23:25:35.152Z,-5.55
2023-02-16T23:27:37.810Z,-5.55
2023-02-16T23:29:40.360Z,-5.54
2023-02-16T23:31:45.327Z,-5.54
2023-02-16T23:33:48.964Z,-5.51
2023-02-16T23:35:51.840Z,-5.52
2023-02-16T23:37:54.399Z,-5.58
2023-02-16T23:39:57.302Z,-5.60
2023-02-16T23:41:59.933Z,-5.60
2023-02-16T23:44:02.689Z,-5.60
2023-02-16T23:46:06.513Z,-5.64
2023-02-16T23:48:09.278Z,-5.69
2023-02-16T23:50:12.032Z,-5.69
2023-02-16T23:52:15.271Z,-5.69
2023-02-16T23:54:17.844Z,-5.72
2023-02-16T23:56:26.155Z,-5.70
2023-02-16T23:58:31.393Z,-5.68
